Time;durP1;ratioP1;P1;durP2;ratioP2;P2;SDS_P1;SDS_P2;PMS_P1;PMS_P2;Temp;Humidity;BMP_temperature;BMP_pressure;BME280_temperature;BME280_humidity;BME280_pressure;Samples;Min_cycle;Max_cycle;Signal;HPM_P1;HPM_P2
2023/02/22 00:02:27;;;;;;;14.13;6.47;;;;;;;4.79;100.00;98106.31;5071149;28;20215;-80
2023/02/22 00:04:54;;;;;;;12.50;7.50;;;;;;;4.75;100.00;98096.91;5071155;28;20614;-79
2023/02/22 00:07:22;;;;;;;10.00;7.17;;;;;;;4.74;100.00;98101.31;5070482;28;20239;-80
2023/02/22 00:09:50;;;;;;;10.50;7.27;;;;;;;4.74;100.00;98101.31;5070992;28;20210;-80
2023/02/22 00:12:16;;;;;;;9.83;7.30;;;;;;;4.70;100.00;98094.50;5070989;28;20580;-80
2023/02/22 00:14:43;;;;;;;12.63;7.27;;;;;;;4.61;100.00;98094.94;5070665;28;20598;-80
2023/02/22 00:17:12;;;;;;;9.30;7.07;;;;;;;4.55;100.00;98094.38;5070629;28;20231;-80
2023/02/22 00:19:38;;;;;;;11.73;8.00;;;;;;;4.46;100.00;98089.56;5070947;28;20238;-80
2023/02/22 00:22:05;;;;;;;10.67;7.17;;;;;;;4.42;100.00;98088.00;5070612;28;20211;-79
2023/02/22 00:24:34;;;;;;;13.20;7.50;;;;;;;4.39;100.00;98088.97;5070790;28;20234;-80
2023/02/22 00:29:30;;;;;;;11.73;7.97;;;;;;;4.36;100.00;98091.75;5069249;28;20219;-83
2023/02/22 00:31:56;;;;;;;13.07;8.30;;;;;;;4.32;100.00;98081.47;5070641;28;20212;-83
2023/02/22 00:34:23;;;;;;;14.00;8.40;;;;;;;4.26;100.00;98081.75;5070726;28;20210;-84
2023/02/22 00:36:50;;;;;;;15.23;9.87;;;;;;;4.18;100.00;98078.63;5070439;28;20211;-86
2023/02/22 00:39:17;;;;;;;16.30;9.53;;;;;;;4.11;100.00;98082.44;5050565;28;20219;-82
2023/02/22 00:41:44;;;;;;;13.57;9.50;;;;;;;4.03;100.00;98090.63;5050487;28;20703;-82
2023/02/22 00:44:10;;;;;;;18.33;10.13;;;;;;;4.00;100.00;98085.53;5052087;28;20215;-82
2023/02/22 00:46:38;;;;;;;14.07;8.90;;;;;;;3.98;100.00;98081.31;5054149;28;20215;-82
2023/02/22 00:49:05;;;;;;;12.37;8.23;;;;;;;3.97;100.00;98080.44;5054292;28;20247;-82
2023/02/22 00:51:32;;;;;;;11.17;7.53;;;;;;;3.93;100.00;98085.88;5054205;28;20212;-82
2023/02/22 00:53:59;;;;;;;15.03;8.33;;;;;;;3.87;100.00;98083.53;5054198;28;20815;-82
2023/02/22 00:56:25;;;;;;;11.27;8.00;;;;;;;3.81;100.00;98079.44;5054043;28;20211;-82
2023/02/22 00:58:52;;;;;;;14.00;8.20;;;;;;;3.76;100.00;98070.94;5054325;28;20224;-82
2023/02/22 01:01:19;;;;;;;12.10;7.67;;;;;;;3.72;100.00;98081.59;5053993;28;20220;-82
2023/02/22 01:03:47;;;;;;;12.07;8.43;;;;;;;3.75;100.00;98078.81;5054091;28;20296;-82
2023/02/22 01:06:13;;;;;;;11.77;8.33;;;;;;;3.76;100.00;98065.69;5053653;28;20218;-82
2023/02/22 01:08:44;;;;;;;15.27;8.93;;;;;;;3.78;100.00;98063.84;5053763;28;20231;-82
2023/02/22 01:11:10;;;;;;;11.03;7.93;;;;;;;3.72;100.00;98058.06;5054142;28;20257;-82
2023/02/22 01:13:37;;;;;;;11.00;8.20;;;;;;;3.61;100.00;98061.13;5054156;28;20207;-82
2023/02/22 01:16:07;;;;;;;11.40;8.20;;;;;;;3.60;100.00;98053.38;5053920;28;20591;-82
2023/02/22 01:18:34;;;;;;;11.67;8.67;;;;;;;3.60;100.00;98058.59;5053760;28;20239;-82
2023/02/22 01:21:02;;;;;;;13.70;9.33;;;;;;;3.67;100.00;98054.78;5053584;28;20658;-82
2023/02/22 01:23:29;;;;;;;14.67;9.43;;;;;;;3.70;100.00;98054.66;5053618;28;20215;-82
2023/02/22 01:25:56;;;;;;;11.83;8.67;;;;;;;3.72;100.00;98047.63;5053816;28;20215;-82
2023/02/22 01:28:23;;;;;;;13.20;9.47;;;;;;;3.82;100.00;98044.53;5053481;28;20238;-83
2023/02/22 01:30:49;;;;;;;12.83;8.87;;;;;;;3.93;100.00;98047.53;5053708;28;20211;-82
2023/02/22 01:33:16;;;;;;;14.43;8.70;;;;;;;3.87;100.00;98049.53;5053586;28;20563;-82
2023/02/22 01:35:45;;;;;;;15.10;9.43;;;;;;;3.72;100.00;98048.44;5053431;28;20301;-83
2023/02/22 01:38:14;;;;;;;11.80;7.67;;;;;;;3.65;100.00;98056.59;5053297;28;20239;-83
2023/02/22 01:40:42;;;;;;;10.87;8.20;;;;;;;3.61;100.00;98044.59;5053597;28;20238;-82
2023/02/22 01:43:18;;;;;;;11.63;8.03;;;;;;;3.59;100.00;98047.28;5053393;28;20302;-82
2023/02/22 01:45:53;;;;;;;9.87;7.57;;;;;;;3.61;100.00;98044.59;5053388;28;20213;-82
2023/02/22 01:48:25;;;;;;;13.27;8.73;;;;;;;3.63;100.00;98033.19;5052682;28;20253;-82
2023/02/22 01:50:56;;;;;;;11.80;8.90;;;;;;;3.62;100.00;98034.06;5053454;28;20203;-83
2023/02/22 01:53:29;;;;;;;11.93;8.63;;;;;;;3.65;100.00;98036.56;5053621;28;20223;-82
2023/02/22 01:55:56;;;;;;;12.80;8.73;;;;;;;3.65;100.00;98036.56;5053210;28;20264;-82
2023/02/22 01:58:25;;;;;;;14.17;9.27;;;;;;;3.66;100.00;98027.81;5053027;28;20234;-82
2023/02/22 02:00:52;;;;;;;14.20;9.63;;;;;;;3.74;100.00;98028.31;5051985;28;20568;-82
2023/02/22 02:03:22;;;;;;;13.30;9.13;;;;;;;3.77;100.00;98024.72;5053039;28;20206;-82
2023/02/22 02:05:51;;;;;;;13.87;8.77;;;;;;;3.67;100.00;98019.03;5052982;28;20211;-82
2023/02/22 02:08:29;;;;;;;13.57;9.33;;;;;;;3.57;100.00;98016.91;5052396;28;20651;-82
2023/02/22 02:10:57;;;;;;;11.10;8.93;;;;;;;3.45;100.00;98010.44;5052703;28;20226;-82
2023/02/22 02:13:24;;;;;;;11.33;8.50;;;;;;;3.40;100.00;98009.78;5052718;28;20216;-82
2023/02/22 02:15:53;;;;;;;10.43;8.27;;;;;;;3.29;100.00;98004.16;5052833;28;20226;-82
2023/02/22 02:18:20;;;;;;;9.80;7.87;;;;;;;3.25;100.00;98005.19;5052509;28;20241;-82
2023/02/22 02:21:06;;;;;;;12.00;8.47;;;;;;;3.22;100.00;98002.75;5052692;28;20544;-82
2023/02/22 02:23:58;;;;;;;12.13;8.17;;;;;;;3.21;100.00;98003.66;5052566;28;20646;-82
2023/02/22 02:27:02;;;;;;;11.87;7.13;;;;;;;3.18;100.00;97995.94;5052470;28;20218;-82
2023/02/22 02:30:07;;;;;;;11.43;7.53;;;;;;;3.11;100.00;97991.88;5052150;28;20217;-82
2023/02/22 02:32:49;;;;;;;12.67;8.43;;;;;;;3.10;100.00;97990.19;5052580;28;20236;-82
2023/02/22 02:35:22;;;;;;;15.67;10.37;;;;;;;3.18;100.00;97990.72;5052321;28;20214;-82
2023/02/22 02:37:56;;;;;;;14.87;9.80;;;;;;;3.14;100.00;97989.16;5051954;28;20233;-82
2023/02/22 02:40:29;;;;;;;14.93;10.87;;;;;;;3.18;100.00;97982.88;5052158;28;20637;-82
2023/02/22 02:43:05;;;;;;;16.37;11.97;;;;;;;3.16;100.00;97983.84;5052208;28;20215;-82
2023/02/22 02:45:39;;;;;;;16.70;12.33;;;;;;;3.19;100.00;97984.56;5052276;28;20205;-82
2023/02/22 02:48:11;;;;;;;18.77;12.43;;;;;;;3.11;100.00;97978.00;5051598;28;20247;-83
2023/02/22 02:50:43;;;;;;;17.43;12.97;;;;;;;3.02;100.00;97976.63;5051991;28;20215;-81
2023/02/22 02:53:12;;;;;;;16.90;12.63;;;;;;;2.99;100.00;97975.91;5052042;28;20219;-82
2023/02/22 02:55:39;;;;;;;14.53;12.23;;;;;;;3.02;100.00;97970.53;5051892;28;20214;-82
2023/02/22 02:58:07;;;;;;;18.20;12.20;;;;;;;3.03;100.00;97973.09;5051576;28;20317;-81
2023/02/22 03:00:39;;;;;;;17.67;13.37;;;;;;;3.11;100.00;97971.00;5051867;28;20694;-81
2023/02/22 03:03:22;;;;;;;16.77;13.23;;;;;;;3.21;100.00;97968.84;5051783;28;20603;-81
2023/02/22 03:06:11;;;;;;;19.60;14.33;;;;;;;3.28;100.00;97965.06;5051798;28;20221;-81
2023/02/22 03:08:42;;;;;;;18.83;14.07;;;;;;;3.31;100.00;97968.38;5051575;28;20239;-81
2023/02/22 03:11:14;;;;;;;18.43;13.10;;;;;;;3.32;100.00;97951.81;5051512;28;20226;-83
2023/02/22 03:13:49;;;;;;;17.67;13.10;;;;;;;3.37;100.00;97957.66;5051523;28;20673;-82
2023/02/22 03:16:21;;;;;;;18.50;12.97;;;;;;;3.40;100.00;97952.31;5051411;28;20217;-82
2023/02/22 03:18:56;;;;;;;17.27;13.30;;;;;;;3.41;100.00;97954.03;5051757;28;20617;-82
2023/02/22 03:21:28;;;;;;;15.30;12.37;;;;;;;3.44;100.00;97945.19;5051521;28;20589;-82
2023/02/22 03:24:02;;;;;;;18.33;12.90;;;;;;;3.48;100.00;97947.59;5051432;28;20215;-83
2023/02/22 03:26:34;;;;;;;16.30;12.13;;;;;;;3.47;100.00;97948.53;5051312;28;20210;-82
2023/02/22 03:29:04;;;;;;;17.67;12.03;;;;;;;3.43;100.00;97944.34;5051135;28;20245;-82
2023/02/22 03:31:38;;;;;;;15.07;12.07;;;;;;;3.41;100.00;97940.97;5051195;28;20208;-82
2023/02/22 03:34:10;;;;;;;15.73;10.73;;;;;;;3.42;100.00;97934.81;5051341;28;20209;-82
2023/02/22 03:36:41;;;;;;;13.57;10.80;;;;;;;3.44;100.00;97937.38;5050876;28;20269;-82
2023/02/22 03:39:14;;;;;;;14.80;11.37;;;;;;;3.40;100.00;97935.78;5051357;28;20244;-83
2023/02/22 03:41:47;;;;;;;13.63;11.37;;;;;;;3.38;100.00;97935.88;5051065;28;20204;-82
2023/02/22 03:44:18;;;;;;;11.93;10.07;;;;;;;3.38;100.00;97932.41;5051220;28;20610;-83
2023/02/22 03:46:48;;;;;;;11.70;10.03;;;;;;;3.39;100.00;97929.75;5050685;28;20222;-82
2023/02/22 03:49:23;;;;;;;14.67;9.97;;;;;;;3.42;100.00;97933.97;5050732;28;20714;-82
2023/02/22 03:51:50;;;;;;;13.80;10.03;;;;;;;3.41;100.00;97938.34;5051057;28;20582;-83
2023/02/22 03:54:17;;;;;;;11.37;9.60;;;;;;;3.44;100.00;97937.38;5050972;28;20666;-82
2023/02/22 03:56:49;;;;;;;16.00;10.43;;;;;;;3.52;100.00;97933.50;5050656;28;20206;-82
2023/02/22 03:59:17;;;;;;;13.93;10.03;;;;;;;3.57;100.00;97939.38;5050852;28;20231;-82
2023/02/22 04:01:43;;;;;;;13.43;9.67;;;;;;;3.65;100.00;97941.63;5050600;28;20213;-81
2023/02/22 04:04:10;;;;;;;13.40;8.63;;;;;;;3.61;100.00;97935.69;5050978;28;20212;-82
2023/02/22 04:06:38;;;;;;;11.00;8.63;;;;;;;3.58;100.00;97935.84;5050611;28;20209;-82
2023/02/22 04:09:05;;;;;;;13.33;9.67;;;;;;;3.62;100.00;97936.56;5050819;28;20244;-82
2023/02/22 04:11:31;;;;;;;11.17;8.60;;;;;;;3.61;100.00;97940.91;5050725;28;20269;-82
2023/02/22 04:13:58;;;;;;;11.37;8.07;;;;;;;3.58;100.00;97940.19;5050786;28;20568;-82
2023/02/22 04:16:24;;;;;;;14.43;8.90;;;;;;;3.56;100.00;97936.81;5050392;28;20211;-82
2023/02/22 04:18:51;;;;;;;11.37;8.30;;;;;;;3.56;100.00;97937.66;5051770;28;20227;-82
2023/02/22 04:21:17;;;;;;;14.43;9.63;;;;;;;3.54;100.00;97939.50;5054700;28;20206;-82
2023/02/22 04:23:45;;;;;;;12.03;8.50;;;;;;;3.63;100.00;97933.88;5054727;28;20687;-82
2023/02/22 04:26:11;;;;;;;12.77;9.20;;;;;;;3.59;100.00;97929.69;5054420;28;20308;-83
2023/02/22 04:28:38;;;;;;;13.53;8.73;;;;;;;3.62;100.00;97932.16;5054274;28;20233;-82
2023/02/22 04:31:05;;;;;;;12.20;8.40;;;;;;;3.56;100.00;97921.97;5054780;28;20238;-82
2023/02/22 04:33:31;;;;;;;12.60;8.30;;;;;;;3.56;100.00;97924.59;5054655;28;20211;-82
2023/02/22 04:35:58;;;;;;;12.57;8.20;;;;;;;3.56;100.00;97929.81;5054481;28;20208;-82
2023/02/22 04:38:25;;;;;;;12.63;9.37;;;;;;;3.59;100.00;97927.09;5054082;28;20233;-82
2023/02/22 04:40:54;;;;;;;11.07;8.30;;;;;;;3.56;100.00;97927.19;5054515;28;20241;-82
2023/02/22 04:43:21;;;;;;;11.20;8.27;;;;;;;3.61;100.00;97927.84;5054414;28;20214;-82
2023/02/22 04:45:47;;;;;;;10.80;8.33;;;;;;;3.71;100.00;97926.53;5054368;28;20667;-82
2023/02/22 04:48:14;;;;;;;11.30;8.40;;;;;;;3.71;100.00;97920.44;5054305;28;20237;-83
2023/02/22 04:50:41;;;;;;;10.77;8.07;;;;;;;3.78;100.00;97924.50;5054384;28;20218;-83
2023/02/22 04:53:07;;;;;;;11.67;8.40;;;;;;;3.78;100.00;97917.50;5054425;28;20302;-83
2023/02/22 04:55:33;;;;;;;14.97;8.30;;;;;;;3.78;100.00;97914.03;5054224;28;20207;-82
2023/02/22 04:58:01;;;;;;;13.30;8.63;;;;;;;3.82;100.00;97912.97;5053741;28;20224;-82
2023/02/22 05:00:28;;;;;;;11.70;8.13;;;;;;;3.74;100.00;97915.91;5054445;28;20211;-82
2023/02/22 05:02:54;;;;;;;9.87;7.53;;;;;;;3.70;100.00;97914.38;5054474;28;20234;-82
2023/02/22 05:05:21;;;;;;;12.00;8.20;;;;;;;3.66;100.00;97912.00;5054095;28;20216;-83
2023/02/22 05:07:48;;;;;;;11.47;8.20;;;;;;;3.67;100.00;97909.28;5053567;28;20226;-82
2023/02/22 05:10:15;;;;;;;11.33;7.70;;;;;;;3.64;100.00;97909.44;5053871;28;20243;-83
2023/02/22 05:12:42;;;;;;;11.43;8.30;;;;;;;3.56;100.00;97916.75;5053831;28;20221;-79
2023/02/22 05:15:15;;;;;;;10.33;7.57;;;;;;;3.52;100.00;97912.59;5053669;28;20214;-79
2023/02/22 05:17:41;;;;;;;12.63;8.60;;;;;;;3.46;100.00;97905.03;5053623;28;20224;-83
2023/02/22 05:20:16;;;;;;;11.37;8.63;;;;;;;3.49;100.00;97911.88;5053517;28;20196;-83
2023/02/22 05:22:42;;;;;;;15.43;9.00;;;;;;;3.45;100.00;97903.34;5053692;28;20267;-84
2023/02/22 05:25:10;;;;;;;14.43;8.80;;;;;;;3.46;100.00;97902.44;5053503;28;20211;-83
2023/02/22 05:27:36;;;;;;;12.43;8.57;;;;;;;3.50;100.00;97911.84;5053472;28;20230;-84
2023/02/22 05:30:03;;;;;;;13.53;8.60;;;;;;;3.59;100.00;97906.19;5053096;28;20229;-84
2023/02/22 05:32:31;;;;;;;11.40;8.47;;;;;;;3.65;100.00;97898.06;5053613;28;20208;-84
2023/02/22 05:34:58;;;;;;;11.93;8.60;;;;;;;3.60;100.00;97892.19;5053363;28;20678;-84
2023/02/22 05:37:24;;;;;;;10.50;7.70;;;;;;;3.59;100.00;97894.88;5053001;28;20231;-84
2023/02/22 05:39:51;;;;;;;14.47;8.60;;;;;;;3.55;100.00;97888.94;5053354;28;20215;-84
2023/02/22 05:42:18;;;;;;;11.70;7.80;;;;;;;3.58;100.00;97893.19;5053654;28;20506;-84
2023/02/22 05:44:44;;;;;;;13.00;8.87;;;;;;;3.60;100.00;97892.19;5053452;28;20644;-84
2023/02/22 05:47:11;;;;;;;13.77;8.70;;;;;;;3.58;100.00;97888.81;5052993;28;20215;-84
2023/02/22 05:49:39;;;;;;;13.97;8.70;;;;;;;3.57;100.00;97888.88;5053382;28;20697;-84
2023/02/22 05:52:05;;;;;;;11.63;7.93;;;;;;;3.66;100.00;97891.91;5054768;28;20215;-83
2023/02/22 05:54:32;;;;;;;12.47;8.47;;;;;;;3.70;100.00;97893.47;5053751;28;20216;-84
2023/02/22 05:56:58;;;;;;;9.13;7.83;;;;;;;3.67;100.00;97888.38;5053074;28;20236;-84
2023/02/22 05:59:25;;;;;;;12.53;8.27;;;;;;;3.62;100.00;97890.34;5053476;28;20207;-84
2023/02/22 06:01:51;;;;;;;10.57;8.33;;;;;;;3.61;100.00;97886.03;5053285;28;20584;-84
2023/02/22 06:04:18;;;;;;;10.80;8.30;;;;;;;3.59;100.00;97885.28;5053370;28;20215;-84
2023/02/22 06:06:46;;;;;;;13.30;8.57;;;;;;;3.60;100.00;97886.13;5052687;28;20219;-84
2023/02/22 06:09:13;;;;;;;10.80;8.10;;;;;;;3.56;100.00;97889.78;5052937;28;20314;-84
2023/02/22 06:11:39;;;;;;;13.10;8.17;;;;;;;3.59;100.00;97885.28;5053038;28;20211;-83
2023/02/22 06:14:07;;;;;;;12.17;8.00;;;;;;;3.64;100.00;97885.91;5052933;28;20569;-84
2023/02/22 06:16:33;;;;;;;10.37;8.27;;;;;;;3.67;100.00;97882.31;5052560;28;20212;-84
2023/02/22 06:19:00;;;;;;;13.50;8.53;;;;;;;3.72;100.00;97886.41;5052856;28;20231;-83
2023/02/22 06:21:28;;;;;;;11.13;8.53;;;;;;;3.69;100.00;97889.19;5052711;28;20222;-84
2023/02/22 06:23:56;;;;;;;11.57;7.50;;;;;;;3.61;100.00;97893.88;5052765;28;20253;-84
2023/02/22 06:26:22;;;;;;;11.77;8.47;;;;;;;3.58;100.00;97888.81;5052352;28;20207;-84
2023/02/22 06:28:49;;;;;;;10.80;8.47;;;;;;;3.53;100.00;97896.00;5052436;28;20257;-84
2023/02/22 06:31:15;;;;;;;11.20;8.07;;;;;;;3.50;100.00;97900.53;5052305;28;20211;-84
2023/02/22 06:33:42;;;;;;;12.00;8.40;;;;;;;3.53;100.00;97901.22;5052326;28;20211;-84
2023/02/22 06:36:10;;;;;;;12.37;8.27;;;;;;;3.66;100.00;97910.22;5052001;28;20215;-84
2023/02/22 06:38:36;;;;;;;12.23;8.00;;;;;;;3.67;100.00;97913.69;5052352;28;20316;-84
2023/02/22 06:41:04;;;;;;;10.13;8.17;;;;;;;3.75;100.00;97911.56;5051704;28;20203;-84
2023/02/22 06:43:31;;;;;;;11.63;8.30;;;;;;;3.78;100.00;97917.50;5052001;28;20211;-84
2023/02/22 06:45:57;;;;;;;12.07;8.00;;;;;;;3.84;100.00;97916.38;5052202;28;20204;-84
2023/02/22 06:48:24;;;;;;;12.13;8.17;;;;;;;3.96;100.00;97911.41;5051659;28;20228;-83
2023/02/22 06:50:50;;;;;;;10.17;7.63;;;;;;;4.04;100.00;97924.97;5052280;28;20207;-84
2023/02/22 06:53:17;;;;;;;11.80;8.43;;;;;;;4.17;100.00;97913.00;5052109;28;20212;-83
2023/02/22 06:55:43;;;;;;;9.53;7.50;;;;;;;4.21;100.00;97914.56;5051996;28;20222;-83
2023/02/22 06:58:11;;;;;;;9.43;7.70;;;;;;;4.30;100.00;97913.28;5051550;28;20228;-84
2023/02/22 07:00:38;;;;;;;10.10;7.73;;;;;;;4.31;100.00;97912.34;5051920;28;20210;-84
2023/02/22 07:03:04;;;;;;;10.33;7.50;;;;;;;4.33;100.00;97921.84;5051839;28;20206;-84
2023/02/22 07:05:31;;;;;;;12.63;7.87;;;;;;;4.34;100.00;97918.28;5051801;28;20223;-83
2023/02/22 07:08:04;;;;;;;11.20;7.77;;;;;;;4.43;100.00;97917.88;5051495;28;20238;-83
2023/02/22 07:10:32;;;;;;;10.40;7.67;;;;;;;4.54;100.00;97920.81;5051874;28;20231;-85
2023/02/22 07:12:59;;;;;;;12.33;7.97;;;;;;;4.59;100.00;97918.78;5051592;28;20207;-78
2023/02/22 07:15:28;;;;;;;10.17;7.90;;;;;;;4.64;100.00;97916.81;5051491;28;20209;-84
2023/02/22 07:17:55;;;;;;;9.97;7.43;;;;;;;4.69;100.00;97914.81;5051333;28;20227;-85
2023/02/22 07:20:27;;;;;;;10.33;7.63;;;;;;;4.71;100.00;97915.56;5050674;28;20211;-85
2023/02/22 07:22:54;;;;;;;12.00;8.40;;;;;;;4.82;100.00;97915.91;5051868;28;20208;-84
2023/02/22 07:25:22;;;;;;;13.33;7.73;;;;;;;4.87;100.00;97919.13;5051627;28;20215;-86
2023/02/22 07:27:51;;;;;;;11.53;8.17;;;;;;;4.93;100.00;97918.84;5051165;28;20232;-86
2023/02/22 07:30:19;;;;;;;12.13;8.20;;;;;;;5.00;100.00;97914.16;5051350;28;20329;-87
2023/02/22 07:32:47;;;;;;;11.02;8.43;;;;;;;5.06;100.00;97916.47;5050726;28;20432;-86
2023/02/22 07:35:15;;;;;;;12.43;8.70;;;;;;;5.12;100.00;97924.00;5051119;28;20206;-83
2023/02/22 07:37:42;;;;;;;13.77;9.27;;;;;;;5.18;100.00;97924.53;5050967;28;20225;-78
2023/02/22 07:40:09;;;;;;;11.70;7.87;;;;;;;5.13;100.00;97923.91;5051242;28;20208;-82
2023/02/22 07:42:51;;;;;;;11.73;8.07;;;;;;;5.13;100.00;97923.91;5051074;28;20218;-81
2023/02/22 07:45:17;;;;;;;15.90;8.43;;;;;;;5.13;100.00;97925.69;5051419;28;20231;-82
2023/02/22 07:47:47;;;;;;;12.83;8.37;;;;;;;5.19;100.00;97922.75;5049462;28;20605;-82
2023/02/22 07:50:14;;;;;;;14.37;8.60;;;;;;;5.23;100.00;97933.00;5050432;28;20232;-82
2023/02/22 07:52:40;;;;;;;10.53;7.93;;;;;;;5.24;100.00;97928.59;5050903;28;20208;-82
2023/02/22 07:55:07;;;;;;;13.17;8.97;;;;;;;5.25;100.00;97925.91;5049055;28;20226;-83
2023/02/22 07:57:34;;;;;;;13.43;8.77;;;;;;;5.24;100.00;97924.22;5050565;28;20714;-82
2023/02/22 08:00:00;;;;;;;13.80;9.07;;;;;;;5.26;100.00;97932.81;5051256;28;20216;-82
2023/02/22 08:02:27;;;;;;;11.97;8.80;;;;;;;5.30;100.00;97931.75;5049169;28;20224;-78
2023/02/22 08:04:54;;;;;;;12.20;8.57;;;;;;;5.37;100.00;97932.28;5049657;28;20211;-78
2023/02/22 08:07:21;;;;;;;13.43;8.83;;;;;;;5.36;100.00;97923.56;5049241;28;20232;-78
2023/02/22 08:09:47;;;;;;;10.73;8.07;;;;;;;5.46;100.00;97923.94;5050317;28;20579;-78
2023/02/22 08:12:15;;;;;;;12.63;8.73;;;;;;;5.50;100.00;97926.31;5050775;28;20214;-79
2023/02/22 08:14:41;;;;;;;14.63;8.33;;;;;;;5.50;100.00;97931.56;5050928;28;20682;-81
2023/02/22 08:17:08;;;;;;;14.50;9.13;;;;;;;5.59;100.00;97922.38;5050828;28;20206;-79
2023/02/22 08:19:34;;;;;;;13.67;8.10;;;;;;;5.66;100.00;97921.13;5050286;28;20218;-80
2023/02/22 08:22:02;;;;;;;13.43;7.53;;;;;;;5.69;100.00;97920.97;5050843;28;20218;-83
2023/02/22 08:24:29;;;;;;;10.37;7.93;;;;;;;5.75;100.00;97921.47;5050778;28;20277;-82
2023/02/22 08:26:55;;;;;;;11.33;8.23;;;;;;;5.80;100.00;97916.88;5050775;28;20585;-83
2023/02/22 08:29:22;;;;;;;13.47;8.70;;;;;;;5.88;100.00;97916.47;5050706;28;20231;-83
2023/02/22 08:31:52;;;;;;;11.67;8.63;;;;;;;5.97;100.00;97916.81;5051010;28;20719;-83
2023/02/22 08:34:19;;;;;;;13.50;7.87;;;;;;;6.04;100.00;97912.91;5051264;28;20732;-83
2023/02/22 08:36:45;;;;;;;10.00;7.57;;;;;;;6.13;100.00;97901.94;5050738;28;20209;-82
2023/02/22 08:39:13;;;;;;;10.73;7.83;;;;;;;6.26;100.00;97908.19;5050955;28;20227;-82
2023/02/22 08:41:40;;;;;;;12.97;8.93;;;;;;;6.35;100.00;97912.91;5051059;28;20212;-83
2023/02/22 08:44:06;;;;;;;11.17;8.27;;;;;;;6.45;100.00;97916.72;5050936;28;20302;-83
2023/02/22 08:46:33;;;;;;;10.47;7.70;;;;;;;6.59;100.00;97916.78;5050672;28;20702;-83
2023/02/22 08:48:59;;;;;;;15.20;9.30;;;;;;;6.83;100.00;97914.56;5050770;28;20237;-83
2023/02/22 08:51:26;;;;;;;13.80;9.33;;;;;;;7.01;100.00;97914.31;5050899;28;20313;-83
2023/02/22 08:53:53;;;;;;;12.30;9.13;;;;;;;7.13;99.20;97924.09;5051025;28;20217;-82
2023/02/22 08:56:22;;;;;;;12.17;8.33;;;;;;;7.30;98.66;97918.72;5051031;28;20303;-82
2023/02/22 08:58:48;;;;;;;12.60;7.97;;;;;;;7.40;98.87;97914.56;5050862;28;20245;-82
2023/02/22 09:01:14;;;;;;;11.77;7.77;;;;;;;7.51;98.43;97914.78;5050895;28;20574;-83
2023/02/22 09:03:41;;;;;;;11.67;8.00;;;;;;;7.71;97.72;97911.81;5048835;28;20216;-82
2023/02/22 09:06:08;;;;;;;14.17;7.23;;;;;;;7.88;95.54;97904.56;5052167;28;20224;-83
2023/02/22 09:08:34;;;;;;;9.10;7.27;;;;;;;8.10;92.39;97897.03;5055030;28;20229;-82
2023/02/22 09:11:01;;;;;;;12.20;7.00;;;;;;;8.22;90.89;97896.28;5055462;28;20663;-82
2023/02/22 09:13:28;;;;;;;11.07;6.40;;;;;;;8.41;88.92;97896.78;5055855;28;20228;-83
2023/02/22 09:15:55;;;;;;;11.03;6.80;;;;;;;8.53;87.50;97887.25;5054232;28;20211;-82
2023/02/22 09:18:21;;;;;;;9.17;6.03;;;;;;;8.62;86.45;97886.66;5053964;28;20234;-82
2023/02/22 09:20:48;;;;;;;9.77;6.83;;;;;;;8.59;86.13;97881.56;5054316;28;20204;-83
2023/02/22 09:23:14;;;;;;;9.17;6.60;;;;;;;8.59;86.13;97892.13;5053970;28;20215;-83
2023/02/22 09:25:41;;;;;;;10.00;6.80;;;;;;;8.60;86.85;97888.53;5054106;28;20214;-83
2023/02/22 09:28:08;;;;;;;9.97;7.23;;;;;;;8.51;88.18;97884.69;5053566;28;20639;-83
2023/02/22 09:30:36;;;;;;;8.70;5.93;;;;;;;8.70;87.37;97889.63;5053893;28;20239;-83
2023/02/22 09:33:08;;;;;;;7.37;5.80;;;;;;;8.75;86.30;97883.09;5053906;28;20239;-83
2023/02/22 09:35:35;;;;;;;10.10;6.33;;;;;;;8.84;86.33;97889.56;5054108;28;20581;-84
2023/02/22 09:38:06;;;;;;;9.57;7.13;;;;;;;8.91;85.43;97882.94;5053639;28;20604;-83
2023/02/22 09:40:39;;;;;;;9.37;6.43;;;;;;;8.97;84.79;97871.97;5053927;28;20267;-84
2023/02/22 09:43:16;;;;;;;9.53;6.77;;;;;;;9.00;84.29;97880.53;5053843;28;20217;-84
2023/02/22 09:45:57;;;;;;;9.13;7.30;;;;;;;9.06;84.14;97877.47;5053949;28;20219;-83
2023/02/22 09:48:25;;;;;;;11.17;7.00;;;;;;;9.15;84.22;97870.75;5053397;28;20239;-83
2023/02/22 09:50:54;;;;;;;10.83;7.30;;;;;;;9.34;82.73;97861.50;5053551;28;20244;-83
2023/02/22 09:53:28;;;;;;;9.23;6.90;;;;;;;9.55;83.03;97864.44;5053456;28;20290;-83
2023/02/22 09:55:56;;;;;;;9.20;7.37;;;;;;;9.77;81.19;97860.19;5053437;28;20287;-83
2023/02/22 09:58:26;;;;;;;9.80;7.30;;;;;;;9.89;80.68;97858.47;5053309;28;20702;-84
2023/02/22 10:00:58;;;;;;;10.13;7.30;;;;;;;10.11;79.43;97853.41;5053604;28;20224;-84
2023/02/22 10:03:31;;;;;;;10.37;7.30;;;;;;;10.27;78.43;97843.44;5053319;28;20206;-84
2023/02/22 10:06:01;;;;;;;11.00;7.57;;;;;;;10.45;79.37;97858.78;5053331;28;20216;-82
2023/02/22 10:08:32;;;;;;;11.50;8.02;;;;;;;10.63;78.06;97846.00;5051947;28;20439;-87
2023/02/22 10:11:06;;;;;;;8.97;7.03;;;;;;;10.73;78.34;97847.03;5053677;28;20231;-88
2023/02/22 10:13:43;;;;;;;12.87;8.20;;;;;;;10.95;79.44;97861.16;5051768;28;20216;-82
2023/02/22 10:16:18;;;;;;;11.77;7.97;;;;;;;11.14;78.75;97850.06;5051530;28;20212;-84
2023/02/22 10:19:11;;;;;;;10.30;7.60;;;;;;;11.40;78.40;97854.19;5052844;28;20229;-83
2023/02/22 10:22:03;;;;;;;9.77;7.50;;;;;;;11.43;76.29;97838.09;5052044;28;20218;-79
2023/02/22 10:24:40;;;;;;;9.03;7.07;;;;;;;11.43;76.70;97843.38;5054685;28;20223;-87
2023/02/22 10:27:13;;;;;;;9.33;7.67;;;;;;;11.48;76.03;97846.50;5054965;28;20289;-83
2023/02/22 10:29:43;;;;;;;11.73;8.57;;;;;;;11.56;75.70;97838.81;5053593;28;20211;-81
2023/02/22 10:32:17;;;;;;;10.57;8.00;;;;;;;11.50;76.28;97849.88;5054163;28;20673;-85
2023/02/22 10:34:47;;;;;;;13.40;8.53;;;;;;;11.54;76.46;97841.59;5053330;28;20204;-88
2023/02/22 10:37:23;;;;;;;10.30;8.27;;;;;;;11.44;76.42;97834.47;5052217;28;20717;-81
2023/02/22 10:39:53;;;;;;;10.40;8.47;;;;;;;11.40;77.44;97838.31;5052731;28;20345;-77
2023/02/22 10:42:25;;;;;;;10.93;8.70;;;;;;;11.33;77.26;97837.09;5052403;28;20693;-82
2023/02/22 10:44:51;;;;;;;12.37;9.87;;;;;;;11.38;76.21;97832.31;5052659;28;20210;-77
2023/02/22 10:47:20;;;;;;;12.97;9.80;;;;;;;11.36;75.84;97831.56;5052198;28;20233;-76
2023/02/22 10:49:50;;;;;;;14.13;9.23;;;;;;;11.30;76.17;97837.31;5052246;28;20221;-76
2023/02/22 10:52:22;;;;;;;11.00;8.20;;;;;;;11.26;76.92;97843.84;5052222;28;20710;-78
2023/02/22 10:54:51;;;;;;;12.07;8.47;;;;;;;11.32;77.32;97835.44;5052636;28;20208;-86
2023/02/22 10:57:22;;;;;;;12.13;9.83;;;;;;;11.38;77.01;97829.66;5051095;28;20480;-88
2023/02/22 10:59:50;;;;;;;11.57;10.20;;;;;;;11.57;76.97;97837.88;5051217;28;20436;-83
2023/02/22 11:02:21;;;;;;;14.77;9.30;;;;;;;11.69;77.09;97829.00;5052389;28;20215;-86
2023/02/22 11:04:50;;;;;;;10.80;8.60;;;;;;;11.77;74.18;97810.69;5052102;28;20212;-83
2023/02/22 11:07:21;;;;;;;12.30;9.00;;;;;;;11.88;73.25;97814.19;5052389;28;20220;-87
2023/02/22 11:09:51;;;;;;;13.93;8.73;;;;;;;11.88;72.11;97802.75;5052208;28;20287;-90
2023/02/22 11:12:26;;;;;;;12.57;9.27;;;;;;;11.93;72.74;97805.88;5052415;28;20304;-90
2023/02/22 11:14:53;;;;;;;13.37;9.03;;;;;;;12.04;73.07;97809.34;5052181;28;20259;-89
2023/02/22 11:17:30;;;;;;;11.63;8.97;;;;;;;12.12;72.27;97800.78;5051462;28;20232;-90
2023/02/22 11:19:58;;;;;;;11.13;8.23;;;;;;;12.16;71.67;97797.75;5052374;28;20203;-89
2023/02/22 11:22:29;;;;;;;12.40;8.33;;;;;;;12.29;71.33;97792.31;5052285;28;20801;-90
2023/02/22 11:24:59;;;;;;;9.43;7.80;;;;;;;12.44;70.47;97796.38;5052174;28;20205;-79
2023/02/22 11:27:31;;;;;;;11.90;7.63;;;;;;;12.50;69.88;97787.91;5050754;28;20783;-89
2023/02/22 11:30:21;;;;;;;10.13;8.07;;;;;;;12.49;69.14;97778.28;5051952;28;20210;-89
2023/02/22 11:32:53;;;;;;;10.77;8.23;;;;;;;12.46;68.13;97779.38;5048809;28;20205;-88
2023/02/22 11:35:32;;;;;;;11.73;7.77;;;;;;;12.57;66.14;97762.56;5051646;28;20242;-86
2023/02/22 11:38:16;;;;;;;10.77;8.07;;;;;;;12.73;64.57;97744.44;5051232;28;20419;-80
2023/02/22 11:40:42;;;;;;;11.67;7.83;;;;;;;12.65;64.32;97746.88;5051696;28;20204;-85